createdAt,value
2018-05-16T00:00:25.754Z,1008.42
2018-05-16T00:01:01.199Z,1008.42
2018-05-16T00:01:36.498Z,1008.41
2018-05-16T00:02:11.963Z,1008.39
2018-05-16T00:02:47.321Z,1008.39
2018-05-16T00:03:22.683Z,1008.35
2018-05-16T00:03:58.154Z,1008.34
2018-05-16T00:04:33.700Z,1008.36
2018-05-16T00:05:09.164Z,1008.41
2018-05-16T00:05:44.730Z,1008.32
2018-05-16T00:06:19.956Z,1008.32
2018-05-16T00:06:55.472Z,1008.32
2018-05-16T00:07:30.562Z,1008.27
2018-05-16T00:08:06.036Z,1008.31
2018-05-16T00:08:41.318Z,1008.27
2018-05-16T00:09:16.521Z,1008.27
2018-05-16T00:09:51.805Z,1008.26
2018-05-16T00:10:27.661Z,1008.28
2018-05-16T00:11:02.986Z,1008.30
2018-05-16T00:11:37.896Z,1008.26
2018-05-16T00:12:13.346Z,1008.26
2018-05-16T00:12:49.003Z,1008.26
2018-05-16T00:13:24.446Z,1008.31
2018-05-16T00:13:59.734Z,1008.34
2018-05-16T00:14:34.790Z,1008.34
2018-05-16T00:15:10.120Z,1008.38
2018-05-16T00:15:45.453Z,1008.33
2018-05-16T00:16:21.042Z,1008.29
2018-05-16T00:16:56.483Z,1008.28
2018-05-16T00:17:31.871Z,1008.30
2018-05-16T00:18:07.205Z,1008.30
2018-05-16T00:18:42.654Z,1008.30
2018-05-16T00:19:18.194Z,1008.30
2018-05-16T00:19:53.632Z,1008.33
2018-05-16T00:20:29.342Z,1008.38
2018-05-16T00:21:04.533Z,1008.30
2018-05-16T00:21:40.148Z,1008.31
2018-05-16T00:22:15.568Z,1008.37
2018-05-16T00:22:51.203Z,1008.35
2018-05-16T00:23:26.494Z,1008.38
2018-05-16T00:24:01.828Z,1008.40
2018-05-16T00:24:37.025Z,1008.38
2018-05-16T00:25:12.559Z,1008.41
2018-05-16T00:25:49.235Z,1008.38
2018-05-16T00:26:24.820Z,1008.38
2018-05-16T00:27:00.151Z,1008.38
2018-05-16T00:27:35.599Z,1008.36
2018-05-16T00:28:11.120Z,1008.35
2018-05-16T00:28:46.796Z,1008.33
2018-05-16T00:29:22.143Z,1008.37
2018-05-16T00:29:57.747Z,1008.33
2018-05-16T00:30:33.463Z,1008.35
2018-05-16T00:31:08.856Z,1008.34
2018-05-16T00:31:44.626Z,1008.37
2018-05-16T00:32:19.977Z,1008.41
2018-05-16T00:32:55.377Z,1008.42
2018-05-16T00:33:31.001Z,1008.45
2018-05-16T00:34:06.302Z,1008.48
2018-05-16T00:34:41.798Z,1008.49
2018-05-16T00:35:17.704Z,1008.50
2018-05-16T00:35:52.813Z,1008.55
2018-05-16T00:36:28.392Z,1008.47
2018-05-16T00:37:03.877Z,1008.46
2018-05-16T00:37:39.104Z,1008.47
2018-05-16T00:38:14.516Z,1008.43
2018-05-16T00:38:49.756Z,1008.41
2018-05-16T00:39:25.110Z,1008.40
2018-05-16T00:40:00.301Z,1008.40
2018-05-16T00:40:35.776Z,1008.41
2018-05-16T00:41:11.210Z,1008.40
2018-05-16T00:41:46.867Z,1008.43
2018-05-16T00:42:22.399Z,1008.41
2018-05-16T00:42:58.055Z,1008.47
2018-05-16T00:43:33.866Z,1008.51
2018-05-16T00:44:09.205Z,1008.47
2018-05-16T00:44:44.648Z,1008.57
2018-05-16T00:45:20.119Z,1008.59
2018-05-16T00:45:55.589Z,1008.60
2018-05-16T00:46:31.283Z,1008.65
2018-05-16T00:47:06.474Z,1008.60
2018-05-16T00:47:41.651Z,1008.59
2018-05-16T00:48:16.895Z,1008.57
2018-05-16T00:48:52.107Z,1008.59
2018-05-16T00:49:27.486Z,1008.52
2018-05-16T00:50:02.705Z,1008.56
2018-05-16T00:50:38.193Z,1008.56
2018-05-16T00:51:13.190Z,1008.58
2018-05-16T00:51:48.671Z,1008.60
2018-05-16T00:52:23.943Z,1008.61
2018-05-16T00:52:59.301Z,1008.59
2018-05-16T00:53:34.619Z,1008.65
2018-05-16T00:54:10.099Z,1008.63
2018-05-16T00:54:45.347Z,1008.63
2018-05-16T00:55:20.749Z,1008.62
2018-05-16T00:55:56.546Z,1008.64
2018-05-16T00:56:31.907Z,1008.64
2018-05-16T00:57:07.657Z,1008.63
2018-05-16T00:57:43.411Z,1008.63
2018-05-16T00:58:18.819Z,1008.65
2018-05-16T00:58:54.226Z,1008.68
2018-05-16T00:59:29.462Z,1008.66
2018-05-16T01:00:04.844Z,1008.65
2018-05-16T01:00:40.289Z,1008.71
2018-05-16T01:01:15.674Z,1008.67
2018-05-16T01:01:51.475Z,1008.63
2018-05-16T01:02:27.238Z,1008.64
2018-05-16T01:03:02.759Z,1008.63
2018-05-16T01:03:38.207Z,1008.57
2018-05-16T01:04:13.583Z,1008.64
2018-05-16T01:04:49.014Z,1008.56
2018-05-16T01:05:24.342Z,1008.55
2018-05-16T01:05:59.633Z,1008.54
2018-05-16T01:06:34.851Z,1008.53
2018-05-16T01:07:09.978Z,1008.50
2018-05-16T01:07:45.309Z,1008.51
2018-05-16T01:08:21.188Z,1008.45
2018-05-16T01:08:56.515Z,1008.44
2018-05-16T01:09:32.111Z,1008.46
2018-05-16T01:10:07.136Z,1008.40
2018-05-16T01:10:42.520Z,1008.36
2018-05-16T01:11:17.873Z,1008.35
2018-05-16T01:11:53.234Z,1008.33
2018-05-16T01:12:28.606Z,1008.28
2018-05-16T01:13:04.092Z,1008.23
2018-05-16T01:13:39.421Z,1008.19
2018-05-16T01:14:14.795Z,1008.18
2018-05-16T01:14:50.004Z,1008.15
2018-05-16T01:15:25.680Z,1008.16
2018-05-16T01:16:01.077Z,1008.17
2018-05-16T01:16:36.258Z,1008.14
2018-05-16T01:17:11.438Z,1008.13
2018-05-16T01:17:46.572Z,1008.13
2018-05-16T01:18:21.993Z,1008.13
2018-05-16T01:18:57.371Z,1008.11
2018-05-16T01:19:32.953Z,1008.09
2018-05-16T01:20:08.368Z,1008.11
2018-05-16T01:20:43.649Z,1008.12
2018-05-16T01:21:18.947Z,1008.16
2018-05-16T01:21:54.129Z,1008.21
2018-05-16T01:22:29.504Z,1008.22
2018-05-16T01:23:04.669Z,1008.25
2018-05-16T01:23:40.389Z,1008.27
2018-05-16T01:24:15.795Z,1008.29
2018-05-16T01:24:50.956Z,1008.29
2018-05-16T01:25:26.589Z,1008.32
2018-05-16T01:26:02.042Z,1008.29
2018-05-16T01:26:37.244Z,1008.27
2018-05-16T01:27:12.431Z,1008.27
2018-05-16T01:27:48.128Z,1008.24
2018-05-16T01:28:23.330Z,1008.24
2018-05-16T01:28:58.662Z,1008.23
2018-05-16T01:29:33.864Z,1008.21
2018-05-16T01:30:09.285Z,1008.22
2018-05-16T01:30:44.874Z,1008.20
2018-05-16T01:31:20.238Z,1008.21
2018-05-16T01:31:55.706Z,1008.23
2018-05-16T01:32:31.061Z,1008.24
2018-05-16T01:33:06.594Z,1008.23
2018-05-16T01:33:42.266Z,1008.23
2018-05-16T01:34:17.522Z,1008.20
2018-05-16T01:34:52.858Z,1008.22
2018-05-16T01:35:28.334Z,1008.21
2018-05-16T01:36:03.566Z,1008.26
2018-05-16T01:36:38.934Z,1008.24
2018-05-16T01:37:14.221Z,1008.15
2018-05-16T01:37:49.648Z,1008.18
2018-05-16T01:38:24.763Z,1008.20
2018-05-16T01:38:59.895Z,1008.17
2018-05-16T01:39:35.569Z,1008.12
2018-05-16T01:40:10.888Z,1008.15
2018-05-16T01:40:46.408Z,1008.14
2018-05-16T01:41:21.615Z,1008.12
2018-05-16T01:41:56.826Z,1008.09
2018-05-16T01:42:32.418Z,1008.09
2018-05-16T01:43:08.098Z,1008.08
2018-05-16T01:43:43.627Z,1008.07
2018-05-16T01:44:19.089Z,1008.09
2018-05-16T01:44:54.611Z,1008.07
2018-05-16T01:45:29.818Z,1008.04
2018-05-16T01:46:05.207Z,1008.04
2018-05-16T01:46:40.651Z,1008.05
2018-05-16T01:47:16.058Z,1008.05
2018-05-16T01:47:51.253Z,1008.02
2018-05-16T01:48:26.688Z,1008.03
2018-05-16T01:49:01.974Z,1008.02
2018-05-16T01:49:37.588Z,1008.02
2018-05-16T01:50:13.011Z,1008.00
2018-05-16T01:50:48.416Z,1008.01
2018-05-16T01:51:24.288Z,1007.99
2018-05-16T01:51:59.630Z,1007.99
2018-05-16T01:52:34.941Z,1008.01
2018-05-16T01:53:10.175Z,1008.05
2018-05-16T01:53:45.345Z,1008.02
2018-05-16T01:54:20.477Z,1008.04
2018-05-16T01:54:56.024Z,1008.04
2018-05-16T01:55:31.190Z,1008.02
2018-05-16T01:56:06.489Z,1008.02
2018-05-16T01:56:41.850Z,1008.02
2018-05-16T01:57:17.219Z,1008.05
2018-05-16T01:57:52.806Z,1008.06
2018-05-16T01:58:28.349Z,1008.04
2018-05-16T01:59:03.808Z,1008.03
2018-05-16T01:59:38.894Z,1008.02
2018-05-16T02:00:14.210Z,1008.05
2018-05-16T02:00:49.392Z,1008.04
2018-05-16T02:01:24.539Z,1008.03
2018-05-16T02:02:00.109Z,1008.02
2018-05-16T02:02:35.584Z,1008.04
2018-05-16T02:03:10.989Z,1008.02
2018-05-16T02:03:46.412Z,1008.02
2018-05-16T02:04:21.864Z,1008.03
2018-05-16T02:04:57.287Z,1008.01
2018-05-16T02:05:33.014Z,1008.01
2018-05-16T02:06:08.546Z,1008.00
2018-05-16T02:06:45.181Z,1007.98
2018-05-16T02:07:20.604Z,1008.03
2018-05-16T02:07:56.014Z,1008.05
2018-05-16T02:08:31.399Z,1008.02
2018-05-16T02:09:06.830Z,1008.05
2018-05-16T02:09:42.497Z,1008.04
2018-05-16T02:10:17.739Z,1008.08
2018-05-16T02:10:53.115Z,1008.06
2018-05-16T02:11:28.418Z,1008.07
2018-05-16T02:12:03.976Z,1008.08
2018-05-16T02:12:40.921Z,1008.09
2018-05-16T02:13:16.252Z,1008.08
2018-05-16T02:13:51.483Z,1008.07
2018-05-16T02:14:26.988Z,1008.09
2018-05-16T02:15:02.285Z,1008.10
2018-05-16T02:15:41.327Z,1008.09
2018-05-16T02:16:16.544Z,1008.14
2018-05-16T02:16:51.927Z,1008.17
2018-05-16T02:17:27.498Z,1008.18
2018-05-16T02:18:02.691Z,1008.19
2018-05-16T02:18:38.026Z,1008.17
2018-05-16T02:19:13.696Z,1008.19
2018-05-16T02:19:48.969Z,1008.19
2018-05-16T02:20:24.247Z,1008.19
2018-05-16T02:20:59.584Z,1008.18
2018-05-16T02:21:34.942Z,1008.19
2018-05-16T02:22:10.785Z,1008.22
2018-05-16T02:22:45.792Z,1008.22
2018-05-16T02:23:21.119Z,1008.19
2018-05-16T02:23:56.494Z,1008.20
2018-05-16T02:24:32.137Z,1008.20
2018-05-16T02:25:07.594Z,1008.22
2018-05-16T02:25:43.202Z,1008.28
2018-05-16T02:26:18.441Z,1008.21
2018-05-16T02:26:53.783Z,1008.23
2018-05-16T02:27:28.978Z,1008.24
2018-05-16T02:28:04.651Z,1008.20
2018-05-16T02:28:39.911Z,1008.23
2018-05-16T02:29:15.554Z,1008.22
2018-05-16T02:29:51.151Z,1008.22
2018-05-16T02:30:26.443Z,1008.25
2018-05-16T02:31:01.800Z,1008.21
2018-05-16T02:31:37.380Z,1008.22
2018-05-16T02:32:12.617Z,1008.22
2018-05-16T02:32:47.920Z,1008.24
2018-05-16T02:33:23.885Z,1008.24
2018-05-16T02:33:59.178Z,1008.25
2018-05-16T02:34:34.407Z,1008.26
2018-05-16T02:35:09.615Z,1008.28
2018-05-16T02:35:45.373Z,1008.31
2018-05-16T02:36:20.571Z,1008.28
2018-05-16T02:36:56.050Z,1008.28
2018-05-16T02:37:31.517Z,1008.28
2018-05-16T02:38:07.010Z,1008.27
2018-05-16T02:38:42.323Z,1008.27
2018-05-16T02:39:17.654Z,1008.27
2018-05-16T02:39:53.199Z,1008.30
2018-05-16T02:40:28.683Z,1008.31
2018-05-16T02:41:04.290Z,1008.28
2018-05-16T02:41:39.500Z,1008.28
2018-05-16T02:42:15.020Z,1008.32
2018-05-16T02:42:50.394Z,1008.30
2018-05-16T02:43:25.710Z,1008.32
2018-05-16T02:44:01.276Z,1008.29
2018-05-16T02:44:36.616Z,1008.28
2018-05-16T02:45:12.083Z,1008.26
2018-05-16T02:45:47.630Z,1008.27
2018-05-16T02:46:23.069Z,1008.26
2018-05-16T02:46:58.674Z,1008.25
2018-05-16T02:47:33.933Z,1008.22
2018-05-16T02:48:09.483Z,1008.26
2018-05-16T02:48:44.804Z,1008.28
2018-05-16T02:49:20.625Z,1008.25
2018-05-16T02:49:55.709Z,1008.26
2018-05-16T02:50:31.154Z,1008.28
2018-05-16T02:51:06.842Z,1008.30
2018-05-16T02:51:42.001Z,1008.28
2018-05-16T02:52:17.582Z,1008.33
2018-05-16T02:52:52.827Z,1008.30
2018-05-16T02:53:28.282Z,1008.31
2018-05-16T02:54:03.544Z,1008.33
2018-05-16T02:54:38.877Z,1008.34
2018-05-16T02:55:14.467Z,1008.34
2018-05-16T02:55:49.824Z,1008.33
2018-05-16T02:56:25.340Z,1008.32
2018-05-16T02:57:00.712Z,1008.32
2018-05-16T02:57:36.055Z,1008.31
2018-05-16T02:58:11.619Z,1008.34
2018-05-16T02:58:46.814Z,1008.34
2018-05-16T02:59:22.251Z,1008.33
2018-05-16T02:59:57.634Z,1008.33
2018-05-16T03:00:33.182Z,1008.36
2018-05-16T03:01:08.475Z,1008.32
2018-05-16T03:01:43.808Z,1008.29
2018-05-16T03:02:19.218Z,1008.30
2018-05-16T03:02:54.505Z,1008.31
2018-05-16T03:03:29.539Z,1008.29
2018-05-16T03:04:04.763Z,1008.34
2018-05-16T03:04:40.030Z,1008.29
2018-05-16T03:05:15.373Z,1008.30
2018-05-16T03:05:51.166Z,1008.33
2018-05-16T03:06:26.310Z,1008.32
2018-05-16T03:07:01.453Z,1008.34
2018-05-16T03:07:36.838Z,1008.35
2018-05-16T03:08:12.122Z,1008.38
2018-05-16T03:08:47.434Z,1008.40
2018-05-16T03:09:22.718Z,1008.40
2018-05-16T03:09:58.068Z,1008.37
2018-05-16T03:10:33.362Z,1008.44
2018-05-16T03:11:08.794Z,1008.38
2018-05-16T03:11:44.292Z,1008.43
2018-05-16T03:12:19.861Z,1008.46
2018-05-16T03:12:55.087Z,1008.43
2018-05-16T03:13:30.337Z,1008.47
2018-05-16T03:14:05.637Z,1008.43
2018-05-16T03:14:41.005Z,1008.45
2018-05-16T03:15:16.624Z,1008.47
2018-05-16T03:15:52.326Z,1008.44
2018-05-16T03:16:27.855Z,1008.43
2018-05-16T03:17:03.317Z,1008.44
2018-05-16T03:17:38.794Z,1008.46
2018-05-16T03:18:13.953Z,1008.46
2018-05-16T03:18:49.615Z,1008.44
2018-05-16T03:19:25.242Z,1008.44
2018-05-16T03:20:00.906Z,1008.48
2018-05-16T03:20:36.892Z,1008.45
2018-05-16T03:21:12.297Z,1008.45
2018-05-16T03:21:47.718Z,1008.47
2018-05-16T03:22:23.003Z,1008.45
2018-05-16T03:22:58.263Z,1008.45
2018-05-16T03:23:33.848Z,1008.44
2018-05-16T03:24:09.244Z,1008.49
2018-05-16T03:24:44.477Z,1008.50
2018-05-16T03:25:19.865Z,1008.48
2018-05-16T03:25:55.098Z,1008.55
2018-05-16T03:26:30.464Z,1008.54
2018-05-16T03:27:05.898Z,1008.55
2018-05-16T03:27:41.133Z,1008.50
2018-05-16T03:28:16.819Z,1008.54
2018-05-16T03:28:52.283Z,1008.50
2018-05-16T03:29:27.867Z,1008.49
2018-05-16T03:30:03.111Z,1008.48
2018-05-16T03:30:38.576Z,1008.51
2018-05-16T03:31:14.109Z,1008.53
2018-05-16T03:31:49.576Z,1008.52
2018-05-16T03:32:24.722Z,1008.49
2018-05-16T03:33:00.133Z,1008.50
2018-05-16T03:33:35.712Z,1008.53
2018-05-16T03:34:10.964Z,1008.50
2018-05-16T03:34:46.417Z,1008.50
2018-05-16T03:35:22.153Z,1008.49
2018-05-16T03:35:57.731Z,1008.52
2018-05-16T03:36:33.082Z,1008.51
2018-05-16T03:37:08.442Z,1008.49
2018-05-16T03:37:44.047Z,1008.48
2018-05-16T03:38:19.752Z,1008.47
2018-05-16T03:38:55.010Z,1008.47
2018-05-16T03:39:30.333Z,1008.49
2018-05-16T03:40:05.661Z,1008.51
2018-05-16T03:40:40.853Z,1008.50
2018-05-16T03:41:16.513Z,1008.53
2018-05-16T03:41:51.941Z,1008.54
2018-05-16T03:42:27.777Z,1008.56
2018-05-16T03:43:03.106Z,1008.54
2018-05-16T03:43:38.476Z,1008.54
2018-05-16T03:44:14.005Z,1008.56
2018-05-16T03:44:49.397Z,1008.56
2018-05-16T03:45:24.786Z,1008.56
2018-05-16T03:46:00.236Z,1008.53
2018-05-16T03:46:35.650Z,1008.55
2018-05-16T03:47:11.056Z,1008.57
2018-05-16T03:47:46.304Z,1008.54
2018-05-16T03:48:21.497Z,1008.54
2018-05-16T03:48:56.690Z,1008.56
2018-05-16T03:49:31.789Z,1008.58
2018-05-16T03:50:07.314Z,1008.53
2018-05-16T03:50:42.577Z,1008.53
2018-05-16T03:51:17.980Z,1008.55
2018-05-16T03:51:53.474Z,1008.54
2018-05-16T03:52:28.903Z,1008.56
2018-05-16T03:53:04.112Z,1008.55
2018-05-16T03:53:39.470Z,1008.59
2018-05-16T03:54:14.734Z,1008.61
2018-05-16T03:54:49.997Z,1008.58
2018-05-16T03:55:25.424Z,1008.59
2018-05-16T03:56:00.623Z,1008.57
2018-05-16T03:56:36.298Z,1008.58
2018-05-16T03:57:11.530Z,1008.59
2018-05-16T03:57:47.062Z,1008.57
2018-05-16T03:58:22.436Z,1008.59
2018-05-16T03:58:57.718Z,1008.54
2018-05-16T03:59:33.123Z,1008.60
2018-05-16T04:00:08.443Z,1008.56
2018-05-16T04:00:43.866Z,1008.59
2018-05-16T04:01:19.061Z,1008.60
2018-05-16T04:01:54.499Z,1008.57
2018-05-16T04:02:30.013Z,1008.58
2018-05-16T04:03:05.503Z,1008.56
2018-05-16T04:03:41.005Z,1008.62
2018-05-16T04:04:16.350Z,1008.58
2018-05-16T04:04:52.668Z,1008.58
2018-05-16T04:05:28.098Z,1008.59
2018-05-16T04:06:03.874Z,1008.63
2018-05-16T04:06:39.328Z,1008.63
2018-05-16T04:07:14.740Z,1008.59
2018-05-16T04:07:50.146Z,1008.64
2018-05-16T04:08:26.000Z,1008.64
2018-05-16T04:09:01.488Z,1008.67
2018-05-16T04:09:37.222Z,1008.61
2018-05-16T04:10:12.715Z,1008.63
2018-05-16T04:10:48.365Z,1008.62
2018-05-16T04:11:23.940Z,1008.65
2018-05-16T04:11:59.237Z,1008.63
2018-05-16T04:12:34.768Z,1008.68
2018-05-16T04:13:10.172Z,1008.66
2018-05-16T04:13:45.384Z,1008.69
2018-05-16T04:14:20.682Z,1008.62
2018-05-16T04:14:55.960Z,1008.64
2018-05-16T04:15:31.532Z,1008.62
2018-05-16T04:16:07.067Z,1008.62
2018-05-16T04:16:42.508Z,1008.62
2018-05-16T04:17:17.891Z,1008.62
2018-05-16T04:17:53.764Z,1008.63
2018-05-16T04:18:29.149Z,1008.64
2018-05-16T04:19:04.713Z,1008.61
2018-05-16T04:19:40.050Z,1008.63
2018-05-16T04:20:15.390Z,1008.61
2018-05-16T04:20:50.505Z,1008.62
2018-05-16T04:21:25.920Z,1008.62
2018-05-16T04:22:01.597Z,1008.62
2018-05-16T04:22:37.138Z,1008.62
2018-05-16T04:23:12.479Z,1008.65
2018-05-16T04:23:48.000Z,1008.66
2018-05-16T04:24:23.240Z,1008.69
2018-05-16T04:24:58.644Z,1008.67
2018-05-16T04:25:34.181Z,1008.67
2018-05-16T04:26:09.593Z,1008.70
2018-05-16T04:26:45.330Z,1008.75
2018-05-16T04:27:20.630Z,1008.70
2018-05-16T04:27:55.807Z,1008.70
2018-05-16T04:28:31.419Z,1008.69
2018-05-16T04:29:06.796Z,1008.71
2018-05-16T04:29:42.130Z,1008.68
2018-05-16T04:30:17.409Z,1008.71
2018-05-16T04:30:53.001Z,1008.71
2018-05-16T04:31:28.476Z,1008.69
2018-05-16T04:32:03.891Z,1008.70
2018-05-16T04:32:39.132Z,1008.70
2018-05-16T04:33:14.644Z,1008.74
2018-05-16T04:33:49.895Z,1008.73
2018-05-16T04:34:25.237Z,1008.74
2018-05-16T04:35:00.906Z,1008.77
2018-05-16T04:35:36.376Z,1008.76
2018-05-16T04:36:11.621Z,1008.73
2018-05-16T04:36:46.952Z,1008.70
2018-05-16T04:37:22.080Z,1008.70
2018-05-16T04:37:57.659Z,1008.72
2018-05-16T04:38:32.995Z,1008.77
2018-05-16T04:39:08.327Z,1008.76
2018-05-16T04:39:43.544Z,1008.79
2018-05-16T04:40:19.121Z,1008.80
2018-05-16T04:40:54.685Z,1008.81
2018-05-16T04:41:30.451Z,1008.82
2018-05-16T04:42:05.788Z,1008.79
2018-05-16T04:42:41.147Z,1008.81
2018-05-16T04:43:17.619Z,1008.80
2018-05-16T04:43:53.184Z,1008.77
2018-05-16T04:44:28.638Z,1008.76
2018-05-16T04:45:04.111Z,1008.78
2018-05-16T04:45:39.353Z,1008.77
2018-05-16T04:46:15.016Z,1008.78
2018-05-16T04:46:50.231Z,1008.75
2018-05-16T04:47:25.749Z,1008.83
2018-05-16T04:48:01.106Z,1008.82
2018-05-16T04:48:36.511Z,1008.78
2018-05-16T04:49:12.152Z,1008.80
2018-05-16T04:49:47.556Z,1008.81
2018-05-16T04:50:23.210Z,1008.79
2018-05-16T04:50:58.580Z,1008.75
2018-05-16T04:51:33.995Z,1008.75
2018-05-16T04:52:09.456Z,1008.73
2018-05-16T04:52:45.075Z,1008.73
2018-05-16T04:53:20.340Z,1008.79
2018-05-16T04:53:55.834Z,1008.76
2018-05-16T04:54:31.095Z,1008.79
2018-05-16T04:55:06.133Z,1008.78
2018-05-16T04:55:41.662Z,1008.80
2018-05-16T04:56:16.836Z,1008.79
2018-05-16T04:56:52.368Z,1008.81
2018-05-16T04:57:27.593Z,1008.75
2018-05-16T04:58:03.097Z,1008.75
2018-05-16T04:58:38.880Z,1008.77
2018-05-16T04:59:14.226Z,1008.73
2018-05-16T04:59:49.747Z,1008.73
2018-05-16T05:00:24.930Z,1008.72
2018-05-16T05:01:00.327Z,1008.72
2018-05-16T05:01:35.525Z,1008.74
2018-05-16T05:02:10.755Z,1008.74
2018-05-16T05:02:46.155Z,1008.73
2018-05-16T05:03:21.526Z,1008.74
2018-05-16T05:03:57.171Z,1008.73
2018-05-16T05:04:32.580Z,1008.75
2018-05-16T05:05:08.146Z,1008.73
2018-05-16T05:05:43.406Z,1008.77
2018-05-16T05:06:18.994Z,1008.80
2018-05-16T05:06:54.662Z,1008.81
2018-05-16T05:07:30.150Z,1008.80
2018-05-16T05:08:05.543Z,1008.82
2018-05-16T05:08:41.221Z,1008.83
2018-05-16T05:09:16.775Z,1008.82
2018-05-16T05:09:52.223Z,1008.78
2018-05-16T05:10:27.591Z,1008.80
2018-05-16T05:11:03.000Z,1008.78
2018-05-16T05:11:38.431Z,1008.76
2018-05-16T05:12:13.709Z,1008.78
2018-05-16T05:12:48.824Z,1008.80
2018-05-16T05:13:24.048Z,1008.79
2018-05-16T05:13:59.373Z,1008.79
2018-05-16T05:14:34.679Z,1008.79
2018-05-16T05:15:10.044Z,1008.84
2018-05-16T05:15:45.633Z,1008.84
2018-05-16T05:16:20.965Z,1008.85
2018-05-16T05:16:56.223Z,1008.89
2018-05-16T05:17:31.652Z,1008.87
2018-05-16T05:18:07.169Z,1008.87
2018-05-16T05:18:42.554Z,1008.85
2018-05-16T05:19:18.005Z,1008.88
2018-05-16T05:19:53.499Z,1008.85
2018-05-16T05:20:28.926Z,1008.88
2018-05-16T05:21:04.392Z,1008.86
2018-05-16T05:21:40.099Z,1008.89
2018-05-16T05:22:15.598Z,1008.88
2018-05-16T05:22:50.972Z,1008.85
2018-05-16T05:23:26.211Z,1008.81
2018-05-16T05:24:01.504Z,1008.82
2018-05-16T05:24:36.554Z,1008.82
2018-05-16T05:25:11.839Z,1008.81
2018-05-16T05:25:46.918Z,1008.78
2018-05-16T05:26:21.999Z,1008.79
2018-05-16T05:26:57.385Z,1008.80
2018-05-16T05:27:32.816Z,1008.82
2018-05-16T05:28:08.249Z,1008.82
2018-05-16T05:28:43.298Z,1008.80
2018-05-16T05:29:19.044Z,1008.82
2018-05-16T05:29:54.225Z,1008.83
2018-05-16T05:30:29.868Z,1008.85
2018-05-16T05:31:05.362Z,1008.86
2018-05-16T05:31:41.022Z,1008.84
2018-05-16T05:32:16.294Z,1008.86
2018-05-16T05:32:51.727Z,1008.91
2018-05-16T05:33:27.013Z,1008.93
2018-05-16T05:34:02.479Z,1008.95
2018-05-16T05:34:38.428Z,1008.92
2018-05-16T05:35:13.581Z,1008.96
2018-05-16T05:35:49.769Z,1008.93
2018-05-16T05:36:25.253Z,1008.97
2018-05-16T05:37:00.643Z,1009.00
2018-05-16T05:37:35.919Z,1008.99
2018-05-16T05:38:11.702Z,1009.02
2018-05-16T05:38:46.825Z,1009.04
2018-05-16T05:39:22.036Z,1009.09
2018-05-16T05:39:57.405Z,1009.06
2018-05-16T05:40:32.830Z,1009.04
2018-05-16T05:41:08.119Z,1009.07
2018-05-16T05:41:43.488Z,1009.07
2018-05-16T05:42:18.784Z,1009.06
2018-05-16T05:42:54.333Z,1009.03
2018-05-16T05:43:29.765Z,1009.03
2018-05-16T05:44:04.821Z,1009.07
2018-05-16T05:44:40.128Z,1009.09
2018-05-16T05:45:15.574Z,1009.11
2018-05-16T05:45:50.864Z,1009.11
2018-05-16T05:46:26.479Z,1009.12
2018-05-16T05:47:01.891Z,1009.11
2018-05-16T05:47:37.080Z,1009.11
2018-05-16T05:48:12.217Z,1009.13
2018-05-16T05:48:47.399Z,1009.17
2018-05-16T05:49:22.827Z,1009.19
2018-05-16T05:49:58.323Z,1009.13
2018-05-16T05:50:34.002Z,1009.16
2018-05-16T05:51:09.380Z,1009.18
2018-05-16T05:51:44.756Z,1009.15
2018-05-16T05:52:20.194Z,1009.14
2018-05-16T05:52:55.540Z,1009.15
2018-05-16T05:53:30.727Z,1009.21
2018-05-16T05:54:05.843Z,1009.16
2018-05-16T05:54:41.066Z,1009.19
2018-05-16T05:55:16.660Z,1009.16
2018-05-16T05:55:51.898Z,1009.18
2018-05-16T05:56:26.985Z,1009.18
2018-05-16T05:57:02.396Z,1009.19
2018-05-16T05:57:37.489Z,1009.21
2018-05-16T05:58:13.055Z,1009.20
2018-05-16T05:58:48.472Z,1009.21
2018-05-16T05:59:24.062Z,1009.24
2018-05-16T05:59:59.824Z,1009.22
2018-05-16T06:00:35.575Z,1009.23
2018-05-16T06:01:10.988Z,1009.21
2018-05-16T06:01:46.175Z,1009.20
2018-05-16T06:02:21.369Z,1009.23
2018-05-16T06:02:56.711Z,1009.20
2018-05-16T06:03:31.896Z,1009.22
2018-05-16T06:04:07.267Z,1009.20
2018-05-16T06:04:42.621Z,1009.19
2018-05-16T06:05:18.784Z,1009.17
2018-05-16T06:05:55.161Z,1009.13
2018-05-16T06:06:30.773Z,1009.13
2018-05-16T06:07:06.091Z,1009.16
2018-05-16T06:07:41.796Z,1009.16
2018-05-16T06:08:17.161Z,1009.15
2018-05-16T06:08:52.722Z,1009.14
2018-05-16T06:09:28.076Z,1009.14
2018-05-16T06:10:03.486Z,1009.15
2018-05-16T06:10:38.878Z,1009.15
2018-05-16T06:11:14.237Z,1009.18
2018-05-16T06:11:49.714Z,1009.18
2018-05-16T06:12:25.009Z,1009.12
2018-05-16T06:13:00.557Z,1009.12
2018-05-16T06:13:36.000Z,1009.15
2018-05-16T06:14:11.775Z,1009.16
2018-05-16T06:14:47.008Z,1009.14
2018-05-16T06:15:22.523Z,1009.12
2018-05-16T06:15:57.951Z,1009.15
2018-05-16T06:16:33.279Z,1009.17
2018-05-16T06:17:09.859Z,1009.21
2018-05-16T06:17:45.382Z,1009.21
2018-05-16T06:18:21.428Z,1009.27
2018-05-16T06:18:57.588Z,1009.24
2018-05-16T06:19:33.182Z,1009.27
2018-05-16T06:20:08.688Z,1009.25
2018-05-16T06:20:45.183Z,1009.28
2018-05-16T06:21:20.608Z,1009.31
2018-05-16T06:21:55.873Z,1009.30
2018-05-16T06:22:31.539Z,1009.28
2018-05-16T06:23:06.739Z,1009.38
2018-05-16T06:23:42.348Z,1009.36
2018-05-16T06:24:17.409Z,1009.38
2018-05-16T06:24:52.969Z,1009.34
2018-05-16T06:25:28.632Z,1009.38
2018-05-16T06:26:09.197Z,1009.38
2018-05-16T06:26:44.641Z,1009.38
2018-05-16T06:27:20.078Z,1009.42
2018-05-16T06:27:57.764Z,1009.42
2018-05-16T06:28:33.168Z,1009.43
2018-05-16T06:29:08.597Z,1009.41
2018-05-16T06:29:44.377Z,1009.40
2018-05-16T06:30:20.139Z,1009.44
2018-05-16T06:30:57.545Z,1009.43
2018-05-16T06:31:32.957Z,1009.43
2018-05-16T06:32:08.738Z,1009.45
2018-05-16T06:32:44.630Z,1009.37
2018-05-16T06:33:20.275Z,1009.36
2018-05-16T06:33:55.898Z,1009.38
2018-05-16T06:34:31.778Z,1009.39
2018-05-16T06:35:07.044Z,1009.40
2018-05-16T06:35:43.631Z,1009.37
2018-05-16T06:36:18.973Z,1009.40
2018-05-16T06:36:58.551Z,1009.40
2018-05-16T06:37:34.183Z,1009.41
2018-05-16T06:38:10.047Z,1009.39
2018-05-16T06:38:46.882Z,1009.43
2018-05-16T06:39:22.367Z,1009.38
2018-05-16T06:39:57.678Z,1009.41
2018-05-16T06:40:33.181Z,1009.43
2018-05-16T06:41:11.436Z,1009.44
2018-05-16T06:41:46.787Z,1009.45
2018-05-16T06:42:22.259Z,1009.47
2018-05-16T06:42:57.613Z,1009.49
2018-05-16T06:43:32.971Z,1009.49
2018-05-16T06:44:08.293Z,1009.50
2018-05-16T06:44:47.587Z,1009.49
2018-05-16T06:45:23.070Z,1009.52
2018-05-16T06:45:58.253Z,1009.52
2018-05-16T06:46:33.576Z,1009.53
2018-05-16T06:47:08.918Z,1009.58
2018-05-16T06:47:44.386Z,1009.55
2018-05-16T06:48:19.678Z,1009.56
2018-05-16T06:48:55.377Z,1009.56
2018-05-16T06:49:30.811Z,1009.57
2018-05-16T06:50:08.427Z,1009.51
2018-05-16T06:50:44.298Z,1009.53
2018-05-16T06:51:19.934Z,1009.51
2018-05-16T06:51:55.509Z,1009.50
2018-05-16T06:52:30.945Z,1009.48
2018-05-16T06:53:06.461Z,1009.45
2018-05-16T06:53:42.262Z,1009.46
2018-05-16T06:54:17.730Z,1009.48
2018-05-16T06:54:55.003Z,1009.48
2018-05-16T06:55:30.352Z,1009.48
2018-05-16T06:56:05.839Z,1009.50
2018-05-16T06:56:41.617Z,1009.49
2018-05-16T06:57:16.991Z,1009.51
2018-05-16T06:57:52.330Z,1009.51
2018-05-16T06:58:27.645Z,1009.55
2018-05-16T06:59:03.315Z,1009.53
2018-05-16T06:59:38.923Z,1009.56
2018-05-16T07:00:14.395Z,1009.59
2018-05-16T07:00:50.432Z,1009.56
2018-05-16T07:01:28.910Z,1009.55
2018-05-16T07:02:04.244Z,1009.55
2018-05-16T07:02:39.749Z,1009.55
2018-05-16T07:03:15.130Z,1009.51
2018-05-16T07:03:50.370Z,1009.50
2018-05-16T07:04:25.558Z,1009.48
2018-05-16T07:05:01.120Z,1009.48
2018-05-16T07:05:36.467Z,1009.48
2018-05-16T07:06:11.914Z,1009.50
2018-05-16T07:06:47.408Z,1009.50
2018-05-16T07:07:22.642Z,1009.49
2018-05-16T07:07:57.892Z,1009.53
2018-05-16T07:08:33.366Z,1009.53
2018-05-16T07:09:08.826Z,1009.52